Time;durP1;ratioP1;P1;durP2;ratioP2;P2;SDS_P1;SDS_P2;PMS_P1;PMS_P2;Temp;Humidity;BMP_temperature;BMP_pressure;BME280_temperature;BME280_humidity;BME280_pressure;Samples;Min_cycle;Max_cycle;Signal;HPM_P1;HPM_P2
2022/03/06 00:00:17;;;;;;;3.63;1.90;;;21.40;38.30;;;;;;4936956;29;20051;-82
2022/03/06 00:02:43;;;;;;;4.53;1.90;;;21.40;38.30;;;;;;4937435;29;20046;-82
2022/03/06 00:05:12;;;;;;;4.47;2.08;;;22.10;38.70;;;;;;4937307;29;20047;-83
2022/03/06 00:07:37;;;;;;;3.83;1.80;;;21.40;38.30;;;;;;4936604;29;20055;-82
2022/03/06 00:10:06;;;;;;;4.55;1.67;;;22.80;39.10;;;;;;4937262;29;20121;-83
2022/03/06 00:12:32;;;;;;;4.63;1.90;;;21.40;38.30;;;;;;4936687;29;20043;-82
2022/03/06 00:15:03;;;;;;;3.65;1.80;;;21.40;38.40;;;;;;4937666;29;20039;-82
2022/03/06 00:17:29;;;;;;;6.38;2.20;;;21.30;38.30;;;;;;4937450;29;20407;-82
2022/03/06 00:19:54;;;;;;;4.85;1.75;;;21.40;38.40;;;;;;4953794;29;20051;-81
2022/03/06 00:22:21;;;;;;;4.63;1.90;;;21.30;39.10;;;;;;4937345;29;20047;-81
2022/03/06 00:24:47;;;;;;;4.80;2.13;;;21.30;38.40;;;;;;4937423;29;20047;-82
2022/03/06 00:29:48;;;;;;;5.60;2.10;;;21.30;38.40;;;;;;5756510;23;20059;-81
2022/03/06 00:32:13;;;;;;;4.63;1.70;;;21.30;38.50;;;;;;4936873;29;20395;-82
2022/03/06 00:34:42;;;;;;;3.75;1.83;;;22.70;39.80;;;;;;4936226;29;20098;-82
2022/03/06 00:37:11;;;;;;;3.28;1.77;;;21.30;38.60;;;;;;4936903;29;20057;-82
2022/03/06 00:39:42;;;;;;;4.45;2.05;;;20.60;38.90;;;;;;4937236;29;20399;-82
2022/03/06 00:42:39;;;;;;;7.55;2.15;;;21.10;38.60;;;;;;4936605;29;20058;-82
2022/03/06 00:48:46;;;;;;;4.10;1.88;;;21.10;38.40;;;;;;4953057;29;20055;-82
2022/03/06 00:51:41;;;;;;;3.60;1.60;;;21.20;38.80;;;;;;4954240;29;20055;-82
2022/03/06 01:01:35;;;;;;;3.80;1.70;;;20.00;37.90;;;;;;4860070;29;20053;-83
2022/03/06 01:04:01;;;;;;;3.58;1.60;;;21.20;38.50;;;;;;4860077;29;20057;-82
2022/03/06 01:06:26;;;;;;;4.75;1.77;;;20.20;38.10;;;;;;4860002;29;20411;-82
2022/03/06 01:08:52;;;;;;;4.15;2.30;;;22.80;39.50;;;;;;4859126;29;20395;-82
2022/03/06 01:11:24;;;;;;;5.00;2.00;;;21.50;38.90;;;;;;4859985;29;20131;-82
2022/03/06 01:14:17;;;;;;;4.47;1.90;;;19.10;37.60;;;;;;4859894;29;20810;-82
2022/03/06 01:16:42;;;;;;;3.40;1.55;;;21.00;38.50;;;;;;4859531;29;20049;-82
2022/03/06 01:19:45;;;;;;;5.13;2.00;;;21.20;38.80;;;;;;4859909;29;20561;-82
2022/03/06 01:22:11;;;;;;;4.25;2.00;;;21.00;38.50;;;;;;4860102;29;20153;-82
2022/03/06 01:25:05;;;;;;;4.75;1.70;;;19.30;38.50;;;;;;4859257;29;20544;-82
2022/03/06 01:27:49;;;;;;;4.53;1.90;;;22.10;39.10;;;;;;4895436;29;20125;-83
2022/03/06 01:33:51;;;;;;;4.05;1.90;;;22.10;39.30;;;;;;4953379;29;20094;-83
2022/03/06 01:36:19;;;;;;;3.95;1.92;;;21.00;39.30;;;;;;4936088;29;20058;-82
2022/03/06 01:42:55;;;;;;;3.55;1.75;;;20.40;38.20;;;;;;4889993;29;20067;-82
2022/03/06 01:45:29;;;;;;;3.80;1.88;;;20.90;38.50;;;;;;4872237;29;20060;-82
2022/03/06 01:48:08;;;;;;;4.63;2.00;;;20.20;38.50;;;;;;4877652;29;20147;-82
2022/03/06 01:50:34;;;;;;;4.30;2.10;;;20.20;38.60;;;;;;4877801;29;20185;-82
2022/03/06 01:53:08;;;;;;;3.35;1.90;;;22.50;40.50;;;;;;4899489;29;20145;-82
2022/03/06 01:55:40;;;;;;;4.15;1.85;;;19.10;37.60;;;;;;4935620;29;20047;-82
2022/03/06 01:58:47;;;;;;;4.22;1.70;;;22.20;39.70;;;;;;4934372;28;20564;-82
2022/03/06 02:01:24;;;;;;;3.92;1.90;;;21.50;39.20;;;;;;4877482;29;20092;-82
2022/03/06 02:04:22;;;;;;;3.50;1.95;;;22.50;39.80;;;;;;5196216;23;20397;-81
2022/03/06 02:07:03;;;;;;;3.58;1.98;;;20.00;38.20;;;;;;4934973;29;20043;-81
2022/03/06 02:10:22;;;;;;;3.30;1.60;;;20.20;38.40;;;;;;4935606;29;20065;-81
2022/03/06 02:12:54;;;;;;;3.85;1.80;;;20.20;38.30;;;;;;4895410;29;20060;-82
2022/03/06 02:15:34;;;;;;;3.50;1.75;;;20.30;39.40;;;;;;4896332;29;20058;-82
2022/03/06 02:18:12;;;;;;;3.55;1.60;;;20.90;39.40;;;;;;4896191;29;20500;-82
2022/03/06 02:20:38;;;;;;;4.35;1.88;;;21.20;39.70;;;;;;4895332;29;20056;-82
2022/03/06 02:23:12;;;;;;;4.85;1.77;;;20.80;39.10;;;;;;4896186;29;20606;-82
2022/03/06 02:25:47;;;;;;;3.00;1.58;;;21.40;39.30;;;;;;4896170;29;20088;-82
2022/03/06 02:28:24;;;;;;;3.97;1.70;;;20.90;39.40;;;;;;4895533;29;20417;-82
2022/03/06 02:31:09;;;;;;;3.83;1.75;;;19.80;39.20;;;;;;4896133;29;20048;-82
2022/03/06 02:33:50;;;;;;;4.32;1.58;;;20.80;38.80;;;;;;4895683;29;20103;-81
2022/03/06 02:36:21;;;;;;;2.95;1.50;;;22.30;39.70;;;;;;4904340;29;20082;-82
2022/03/06 02:38:50;;;;;;;3.47;1.73;;;18.70;37.80;;;;;;4933788;29;20134;-82
2022/03/06 02:41:17;;;;;;;4.20;1.80;;;20.80;39.70;;;;;;4934355;29;20110;-81
2022/03/06 02:44:11;;;;;;;2.90;1.42;;;20.50;38.70;;;;;;4935122;29;20626;-82
2022/03/06 02:46:52;;;;;;;3.35;1.73;;;19.70;38.10;;;;;;4934928;29;20047;-81
2022/03/06 02:49:29;;;;;;;2.90;1.48;;;19.20;38.90;;;;;;4934637;29;20182;-82
2022/03/06 02:52:09;;;;;;;3.33;1.70;;;22.40;40.20;;;;;;4888556;29;20787;-81
2022/03/06 02:54:41;;;;;;;3.78;1.70;;;21.20;39.10;;;;;;4934260;29;20050;-81
2022/03/06 02:57:10;;;;;;;3.95;1.67;;;20.30;38.90;;;;;;4934653;29;20102;-82
2022/03/06 02:59:46;;;;;;;4.00;1.70;;;21.40;39.20;;;;;;4938350;23;20142;-83
2022/03/06 03:02:15;;;;;;;4.10;1.80;;;22.00;39.70;;;;;;4934239;29;20429;-83
2022/03/06 03:05:06;;;;;;;3.20;1.77;;;21.80;40.00;;;;;;4934992;29;20050;-82
2022/03/06 03:07:44;;;;;;;3.22;1.55;;;19.90;38.40;;;;;;4934901;29;20059;-82
2022/03/06 03:10:11;;;;;;;3.45;1.58;;;21.90;40.20;;;;;;4938630;23;20051;-82
2022/03/06 03:12:37;;;;;;;3.65;1.85;;;20.70;38.80;;;;;;4935941;29;20055;-82
2022/03/06 03:15:06;;;;;;;4.78;2.03;;;21.10;39.00;;;;;;4938295;29;20581;-82
2022/03/06 03:17:35;;;;;;;3.10;1.48;;;20.70;38.90;;;;;;4939208;23;20051;-82
2022/03/06 03:20:26;;;;;;;3.38;1.90;;;20.60;38.90;;;;;;4927217;29;20055;-82
2022/03/06 03:22:51;;;;;;;4.05;1.63;;;19.50;38.40;;;;;;4936392;29;20115;-82
2022/03/06 03:25:32;;;;;;;3.40;1.63;;;21.70;39.50;;;;;;4938083;29;20046;-82
2022/03/06 03:27:58;;;;;;;4.05;1.48;;;20.20;38.80;;;;;;4922504;29;20502;-82
2022/03/06 03:30:39;;;;;;;2.97;1.40;;;21.30;39.40;;;;;;4937690;29;20039;-82
2022/03/06 03:33:14;;;;;;;3.80;1.60;;;21.30;40.20;;;;;;4938113;29;20190;-82
2022/03/06 03:36:10;;;;;;;4.05;1.80;;;20.60;39.30;;;;;;4937924;29;20054;-82
2022/03/06 03:38:35;;;;;;;4.15;1.60;;;21.80;39.50;;;;;;4937606;29;20455;-82
2022/03/06 03:41:41;;;;;;;2.50;1.27;;;20.00;39.00;;;;;;4955166;29;20551;-82
2022/03/06 03:44:07;;;;;;;2.45;1.33;;;20.10;38.60;;;;;;4937300;29;20051;-82
2022/03/06 03:46:39;;;;;;;3.35;1.63;;;20.60;39.60;;;;;;4921840;29;20054;-82
2022/03/06 03:49:04;;;;;;;;;;;20.70;39.60;;;;;;4938670;29;20126;-83
2022/03/06 03:51:53;;;;;;;3.05;1.40;;;21.70;39.60;;;;;;4937242;29;19926;-82
2022/03/06 03:54:25;;;;;;;3.20;1.52;;;20.60;38.90;;;;;;4937509;29;20436;-82
2022/03/06 03:56:56;;;;;;;2.95;1.42;;;20.60;39.20;;;;;;4937846;29;20047;-83
2022/03/06 03:59:25;;;;;;;2.88;1.35;;;20.80;39.30;;;;;;4936898;29;20436;-82
2022/03/06 04:02:07;;;;;;;2.78;1.30;;;18.90;38.20;;;;;;4937780;29;20051;-82
2022/03/06 04:04:32;;;;;;;3.55;1.45;;;21.60;39.50;;;;;;4936736;29;20039;-82
2022/03/06 04:07:07;;;;;;;3.92;1.75;;;20.10;38.90;;;;;;4937574;29;20051;-82
2022/03/06 04:09:36;;;;;;;2.58;1.38;;;20.50;39.10;;;;;;4937230;29;20767;-82
2022/03/06 04:12:05;;;;;;;3.80;1.63;;;21.20;40.50;;;;;;4936578;29;20047;-82
2022/03/06 04:14:59;;;;;;;2.75;1.50;;;20.40;39.20;;;;;;4937141;29;20047;-83
2022/03/06 04:17:40;;;;;;;2.60;1.50;;;19.60;38.40;;;;;;4860542;29;20409;-82
2022/03/06 04:20:06;;;;;;;3.45;1.58;;;22.00;39.90;;;;;;4917083;29;20527;-82
2022/03/06 04:22:32;;;;;;;3.08;1.63;;;20.50;38.90;;;;;;4933316;29;20040;-82
2022/03/06 04:24:58;;;;;;;4.10;1.60;;;20.50;38.90;;;;;;4934109;29;20377;-82
2022/03/06 04:27:23;;;;;;;3.65;1.52;;;21.60;39.50;;;;;;4932989;29;20075;-82
2022/03/06 04:29:49;;;;;;;3.17;1.60;;;20.50;38.90;;;;;;4933715;29;20459;-82
2022/03/06 04:32:14;;;;;;;3.00;1.27;;;20.50;38.90;;;;;;5072806;23;20142;-82
2022/03/06 04:34:40;;;;;;;3.45;1.55;;;20.50;38.90;;;;;;4933756;29;20107;-82
2022/03/06 04:37:05;;;;;;;3.40;1.50;;;20.40;38.90;;;;;;4921030;29;20047;-82
2022/03/06 04:39:31;;;;;;;2.70;1.40;;;20.40;38.90;;;;;;4936519;29;20057;-82
2022/03/06 04:41:59;;;;;;;2.53;1.25;;;20.40;38.90;;;;;;4937292;29;20473;-82
2022/03/06 04:46:53;;;;;;;4.88;1.52;;;20.40;38.90;;;;;;4932654;29;20055;-82
2022/03/06 04:49:31;;;;;;;3.30;1.45;;;20.00;38.90;;;;;;4918021;29;20625;-83
2022/03/06 04:51:57;;;;;;;2.83;1.40;;;19.90;39.10;;;;;;4917754;29;20070;-82
2022/03/06 04:54:34;;;;;;;3.30;1.50;;;21.60;39.80;;;;;;4917017;29;20484;-82
2022/03/06 04:57:06;;;;;;;2.95;1.48;;;19.90;38.80;;;;;;4917826;29;20055;-82
2022/03/06 04:59:40;;;;;;;3.97;1.60;;;20.40;39.60;;;;;;4917496;29;20134;-82
2022/03/06 05:02:06;;;;;;;2.95;1.60;;;20.10;38.90;;;;;;4916911;29;20459;-82
2022/03/06 05:04:32;;;;;;;4.05;1.60;;;21.60;39.70;;;;;;4917084;29;20043;-82
2022/03/06 05:07:00;;;;;;;2.30;1.30;;;20.30;40.00;;;;;;4917388;29;20059;-82
2022/03/06 05:09:35;;;;;;;2.65;1.15;;;20.80;39.80;;;;;;4916815;29;20052;-82
2022/03/06 05:12:16;;;;;;;2.72;1.15;;;20.90;40.70;;;;;;4917311;29;20044;-82
2022/03/06 05:14:57;;;;;;;2.45;1.20;;;20.10;40.20;;;;;;4901011;29;20146;-82
2022/03/06 05:17:35;;;;;;;2.58;1.40;;;20.40;39.00;;;;;;4917141;29;20099;-82
2022/03/06 05:20:15;;;;;;;2.63;1.33;;;19.40;38.90;;;;;;4944504;23;20071;-82
2022/03/06 05:22:55;;;;;;;2.45;1.30;;;19.80;39.40;;;;;;4935214;29;20137;-82
2022/03/06 05:25:36;;;;;;;2.03;1.20;;;20.70;39.50;;;;;;4936161;29;20517;-82
2022/03/06 05:28:05;;;;;;;2.47;1.30;;;19.80;40.20;;;;;;4935956;29;20125;-82
2022/03/06 05:30:42;;;;;;;3.67;1.58;;;19.50;39.60;;;;;;4934686;29;20081;-82
2022/03/06 05:33:07;;;;;;;2.42;1.20;;;19.50;38.60;;;;;;4936090;29;20050;-82
2022/03/06 05:35:33;;;;;;;1.90;1.00;;;21.40;39.90;;;;;;4935587;29;20049;-82
2022/03/06 05:37:59;;;;;;;2.25;1.00;;;19.80;39.30;;;;;;4935085;29;20089;-82
2022/03/06 05:40:31;;;;;;;3.65;1.30;;;20.30;39.40;;;;;;4919702;29;20594;-82
2022/03/06 05:43:02;;;;;;;2.53;1.27;;;20.70;39.60;;;;;;4934933;29;20054;-82
2022/03/06 05:45:40;;;;;;;2.08;1.08;;;20.50;39.90;;;;;;4935559;29;20479;-82
2022/03/06 05:48:06;;;;;;;2.65;1.13;;;20.20;39.20;;;;;;4935802;29;20055;-82
2022/03/06 05:50:31;;;;;;;2.38;1.00;;;19.80;39.20;;;;;;4934881;29;20051;-82
2022/03/06 05:52:57;;;;;;;3.45;1.30;;;20.60;39.30;;;;;;4919812;29;20047;-82
2022/03/06 05:55:22;;;;;;;2.45;1.10;;;19.20;38.60;;;;;;4935274;29;20127;-82
2022/03/06 05:57:50;;;;;;;2.58;1.20;;;19.80;39.00;;;;;;4934891;29;20051;-82
2022/03/06 06:00:25;;;;;;;2.95;1.27;;;19.70;38.90;;;;;;4935767;29;20094;-82
2022/03/06 06:02:53;;;;;;;2.97;1.35;;;20.10;39.50;;;;;;4935714;29;20051;-82
2022/03/06 06:05:31;;;;;;;2.78;1.05;;;20.20;39.40;;;;;;4935001;29;20043;-82
2022/03/06 06:08:08;;;;;;;2.63;1.17;;;20.20;39.50;;;;;;4935514;29;20047;-82
2022/03/06 06:10:51;;;;;;;2.50;1.40;;;18.20;38.30;;;;;;4935508;29;20047;-82
2022/03/06 06:13:44;;;;;;;2.15;1.00;;;19.20;39.00;;;;;;4918751;29;20504;-82
2022/03/06 06:16:29;;;;;;;2.85;1.10;;;19.50;38.60;;;;;;4952655;29;20053;-82
2022/03/06 06:19:07;;;;;;;2.40;1.17;;;20.20;39.10;;;;;;4934315;29;20105;-82
2022/03/06 06:21:58;;;;;;;2.45;1.08;;;21.40;39.80;;;;;;4931031;29;20051;-83
2022/03/06 06:24:29;;;;;;;2.17;1.02;;;18.60;38.70;;;;;;4931730;29;20134;-83
2022/03/06 06:26:57;;;;;;;1.87;1.00;;;20.00;39.00;;;;;;4931223;29;20075;-83
2022/03/06 06:29:32;;;;;;;2.17;1.00;;;21.70;40.50;;;;;;4931978;29;20647;-83
2022/03/06 06:31:58;;;;;;;2.40;1.17;;;20.10;39.60;;;;;;4924623;29;20059;-81
2022/03/06 06:35:11;;;;;;;2.03;1.10;;;21.40;40.60;;;;;;4927543;29;20055;-82
2022/03/06 06:42:06;;;;;;;1.80;0.95;;;19.90;39.70;;;;;;4912324;29;20507;-82
2022/03/06 06:45:37;;;;;;;3.22;1.30;;;20.20;39.10;;;;;;4800815;29;20544;-82
2022/03/06 06:50:58;;;;;;;2.97;1.25;;;19.90;39.70;;;;;;4821909;29;20054;-82
2022/03/06 06:54:19;;;;;;;1.90;1.00;;;20.10;39.20;;;;;;4803338;29;20058;-82
2022/03/06 06:56:54;;;;;;;2.33;1.08;;;20.50;39.40;;;;;;4791580;29;20533;-82
2022/03/06 06:59:28;;;;;;;3.20;1.30;;;20.00;39.70;;;;;;4806794;29;20073;-82
2022/03/06 07:02:00;;;;;;;2.63;1.00;;;19.60;39.20;;;;;;4806455;29;20069;-82
2022/03/06 07:04:40;;;;;;;1.75;0.98;;;21.10;40.40;;;;;;4807357;29;20093;-83
2022/03/06 07:07:06;;;;;;;1.80;0.90;;;20.70;39.90;;;;;;4805506;29;20524;-82
2022/03/06 07:10:06;;;;;;;3.67;1.13;;;21.20;41.10;;;;;;4805481;29;20142;-82
2022/03/06 07:12:46;;;;;;;;;;;20.10;39.20;;;;;;4807501;29;20062;-82
2022/03/06 07:15:54;;;;;;;2.35;0.90;;;20.80;39.60;;;;;;4806149;29;19935;-82
2022/03/06 07:18:29;;;;;;;2.63;1.15;;;19.00;38.60;;;;;;4812648;23;20056;-82
2022/03/06 07:21:47;;;;;;;2.03;0.90;;;20.00;39.20;;;;;;4941721;23;20067;-82
2022/03/06 07:24:16;;;;;;;2.30;1.00;;;20.00;39.20;;;;;;4934827;29;20595;-82
2022/03/06 07:26:54;;;;;;;2.35;0.90;;;19.00;39.40;;;;;;4934999;29;20138;-82
2022/03/06 07:29:29;;;;;;;2.05;0.95;;;20.00;40.30;;;;;;4933846;29;20062;-82
2022/03/06 07:31:54;;;;;;;2.47;1.17;;;19.90;39.50;;;;;;4952853;23;20117;-82
2022/03/06 07:34:21;;;;;;;1.92;0.93;;;19.60;39.10;;;;;;4937834;29;20495;-82
2022/03/06 07:36:55;;;;;;;1.98;0.80;;;19.70;39.20;;;;;;4937339;29;20463;-82
2022/03/06 07:39:21;;;;;;;2.17;1.10;;;21.20;40.50;;;;;;4937905;29;20051;-82
2022/03/06 07:41:58;;;;;;;2.08;0.90;;;21.60;40.20;;;;;;4937741;29;20066;-82
2022/03/06 07:44:39;;;;;;;1.65;0.80;;;19.10;39.40;;;;;;4936972;29;20318;-82
2022/03/06 07:47:05;;;;;;;1.83;0.80;;;19.90;39.40;;;;;;4938194;29;20061;-81
2022/03/06 07:49:31;;;;;;;1.98;0.80;;;19.90;39.70;;;;;;4936976;29;20403;-75
2022/03/06 07:51:56;;;;;;;1.83;0.90;;;19.90;39.30;;;;;;4937960;29;20202;-80
2022/03/06 07:54:22;;;;;;;2.53;0.85;;;19.90;39.20;;;;;;4937681;29;20247;-81
2022/03/06 07:56:48;;;;;;;2.15;0.70;;;19.90;39.20;;;;;;4928495;29;20572;-81
2022/03/06 07:59:14;;;;;;;1.95;0.98;;;19.90;39.20;;;;;;4927744;29;20436;-81
2022/03/06 08:01:47;;;;;;;1.98;0.88;;;20.70;39.60;;;;;;4975666;23;20054;-80
2022/03/06 08:04:20;;;;;;;2.78;0.70;;;19.60;39.10;;;;;;4936926;29;20082;-79
2022/03/06 08:06:48;;;;;;;2.58;0.70;;;20.00;39.20;;;;;;4937339;29;20055;-80
2022/03/06 08:09:14;;;;;;;2.85;0.88;;;19.90;39.10;;;;;;4937398;29;20051;-80
2022/03/06 08:15:08;;;;;;;2.20;0.98;;;20.10;39.30;;;;;;4850635;29;20086;-81
2022/03/06 08:18:06;;;;;;;3.70;0.77;;;19.80;39.10;;;;;;4929241;29;20046;-82
2022/03/06 08:24:38;;;;;;;;;;;;;;;;;;;;;
2022/03/06 08:28:06;;;;;;;2.70;0.90;;;19.00;38.80;;;;;;4862389;29;20128;-81
2022/03/06 08:34:21;;;;;;;1.67;0.70;;;19.80;39.00;;;;;;5131486;23;20125;-82
2022/03/06 08:45:33;;;;;;;2.92;0.77;;;19.00;38.50;;;;;;4949930;29;20819;-81
2022/03/06 08:51:51;;;;;;;3.13;1.17;;;20.20;39.20;;;;;;6071023;23;20788;-81
2022/03/06 08:58:36;;;;;;;4.20;1.02;;;20.00;39.10;;;;;;5166836;23;20054;-81
2022/03/06 09:04:57;;;;;;;3.67;1.10;;;19.40;38.70;;;;;;4935942;29;20046;-82
2022/03/06 09:08:00;;;;;;;2.38;0.85;;;20.00;39.00;;;;;;4918121;28;20058;-82
2022/03/06 09:14:11;;;;;;;3.28;0.90;;;20.30;39.20;;;;;;4844822;29;20057;-80
2022/03/06 09:23:44;;;;;;;2.58;0.90;;;20.30;39.80;;;;;;4837162;29;20054;-82
2022/03/06 09:26:10;;;;;;;2.47;0.98;;;19.80;38.90;;;;;;4822703;29;20102;-82
2022/03/06 09:28:35;;;;;;;1.70;0.70;;;19.60;39.20;;;;;;4822096;29;20097;-82
2022/03/06 09:31:06;;;;;;;2.40;0.80;;;21.10;40.10;;;;;;4864972;29;20056;-81
2022/03/06 09:34:06;;;;;;;2.90;0.80;;;19.80;39.50;;;;;;4878584;29;20147;-82
2022/03/06 09:39:20;;;;;;;2.88;0.80;;;20.10;39.00;;;;;;5103091;23;20114;-82
2022/03/06 09:41:45;;;;;;;1.90;0.63;;;20.10;39.30;;;;;;4935317;29;20051;-82
2022/03/06 09:44:20;;;;;;;2.15;0.80;;;20.60;39.60;;;;;;4919137;29;20057;-82
2022/03/06 09:47:35;;;;;;;2.35;0.68;;;18.50;38.40;;;;;;4904131;29;20061;-82
2022/03/06 09:50:10;;;;;;;1.85;0.60;;;20.20;39.10;;;;;;4858609;29;20672;-83
2022/03/06 09:52:51;;;;;;;2.13;0.82;;;20.20;39.40;;;;;;4874588;29;20061;-82
2022/03/06 09:55:19;;;;;;;2.17;0.70;;;20.10;39.80;;;;;;4859154;29;20529;-82
2022/03/06 09:58:14;;;;;;;1.10;0.60;;;19.70;39.10;;;;;;4842431;29;20169;-82
2022/03/06 10:04:46;;;;;;;2.38;0.80;;;19.00;38.80;;;;;;4827415;29;20049;-82
2022/03/06 10:08:09;;;;;;;2.35;0.70;;;20.70;39.50;;;;;;4851730;29;20144;-82
2022/03/06 10:11:21;;;;;;;2.25;0.60;;;19.80;38.80;;;;;;4871284;29;20052;-82
2022/03/06 10:25:16;;;;;;;1.42;0.60;;;20.50;39.10;;;;;;4932099;29;20107;-81
2022/03/06 10:28:38;;;;;;;2.38;0.63;;;19.00;38.40;;;;;;4935094;29;20084;-82
2022/03/06 10:42:11;;;;;;;1.63;0.68;;;19.20;38.50;;;;;;4841063;29;20475;-81
2022/03/06 11:10:17;;;;;;;2.53;0.80;;;20.50;39.10;;;;;;5831846;23;20053;-81
2022/03/06 11:13:02;;;;;;;1.27;0.60;;;20.50;39.10;;;;;;4903890;29;20043;-81
2022/03/06 12:00:41;;;;;;;1.23;0.50;;;20.80;39.20;;;;;;4818178;29;20134;-80
2022/03/06 12:03:47;;;;;;;2.33;0.47;;;18.80;38.60;;;;;;4794111;29;20120;-81
2022/03/06 13:00:24;;;;;;;1.25;0.40;;;21.00;39.30;;;;;;4953067;29;20042;-82
2022/03/06 13:03:02;;;;;;;;;;;;;;;;;;;;;
2022/03/06 13:10:07;;;;;;;1.77;0.38;;;20.60;39.00;;;;;;4856661;29;20136;-82
2022/03/06 13:15:50;;;;;;;0.65;0.30;;;21.00;39.20;;;;;;4834939;29;20109;-82
2022/03/06 13:39:34;;;;;;;1.52;0.30;;;21.10;39.30;;;;;;5818274;23;20054;-81
2022/03/06 13:42:41;;;;;;;0.93;0.30;;;21.20;39.40;;;;;;4930892;29;20069;-82
2022/03/06 13:52:43;;;;;;;1.13;0.40;;;20.00;39.20;;;;;;4833179;29;20430;-81
2022/03/06 13:55:36;;;;;;;1.50;0.40;;;20.30;38.90;;;;;;4775610;29;20058;-82
2022/03/06 13:58:11;;;;;;;3.45;0.60;;;20.90;39.20;;;;;;4764556;29;20070;-80
2022/03/06 14:15:33;;;;;;;2.17;0.60;;;20.90;38.60;;;;;;4855322;29;20156;-79
2022/03/06 14:18:36;;;;;;;5.63;0.77;;;20.70;38.60;;;;;;4950072;29;20530;-80
2022/03/06 14:24:48;;;;;;;2.05;0.55;;;20.60;38.70;;;;;;4915814;29;20118;-80
2022/03/06 14:27:17;;;;;;;1.60;0.60;;;22.30;39.90;;;;;;4916349;29;20674;-80
2022/03/06 14:29:42;;;;;;;1.80;0.60;;;19.70;38.70;;;;;;4921898;29;20047;-80
2022/03/06 14:33:09;;;;;;;3.08;0.40;;;21.80;40.10;;;;;;4934740;29;20439;-80
2022/03/06 14:39:29;;;;;;;2.25;0.40;;;20.50;39.00;;;;;;5250324;23;20095;-80
2022/03/06 14:41:58;;;;;;;1.73;0.40;;;19.20;38.50;;;;;;4934955;29;20590;-80
2022/03/06 14:44:24;;;;;;;1.85;0.30;;;20.20;39.70;;;;;;4933779;29;20047;-80
2022/03/06 14:46:50;;;;;;;1.48;0.30;;;20.70;39.30;;;;;;4951322;29;20055;-80
2022/03/06 14:49:16;;;;;;;1.95;0.40;;;20.60;39.30;;;;;;4952152;29;20035;-80
2022/03/06 14:51:42;;;;;;;1.45;0.30;;;20.60;40.00;;;;;;4933626;29;20135;-80
2022/03/06 14:54:08;;;;;;;2.58;0.45;;;20.60;39.30;;;;;;4935039;29;20043;-80
2022/03/06 14:56:35;;;;;;;3.70;0.60;;;20.60;39.30;;;;;;4934876;29;20047;-80
2022/03/06 14:59:01;;;;;;;1.60;0.50;;;21.50;39.90;;;;;;4931982;29;20487;-80
2022/03/06 15:01:30;;;;;;;0.98;0.40;;;22.00;40.10;;;;;;4941440;29;20048;-81
2022/03/06 15:03:56;;;;;;;1.27;0.40;;;20.60;39.50;;;;;;4951659;29;20047;-80
2022/03/06 15:06:21;;;;;;;3.30;0.38;;;20.60;39.40;;;;;;4934653;29;20051;-80
2022/03/06 15:08:47;;;;;;;3.97;0.45;;;20.60;39.50;;;;;;4938588;29;20054;-80
2022/03/06 15:11:13;;;;;;;2.42;0.50;;;20.60;39.50;;;;;;4955841;29;20058;-81
2022/03/06 15:13:39;;;;;;;0.82;0.30;;;21.80;40.20;;;;;;4937475;29;20050;-80
2022/03/06 15:16:05;;;;;;;1.40;0.35;;;20.50;40.10;;;;;;4934268;29;20079;-80
2022/03/06 15:18:30;;;;;;;1.65;0.40;;;20.50;39.50;;;;;;4933203;29;20095;-80
2022/03/06 15:20:56;;;;;;;2.55;0.50;;;20.50;39.30;;;;;;4925075;29;20058;-80
2022/03/06 15:23:27;;;;;;;2.13;0.70;;;20.50;39.10;;;;;;4922356;29;20047;-80
2022/03/06 15:25:53;;;;;;;2.70;0.65;;;20.70;38.80;;;;;;4938114;29;20044;-80
2022/03/06 15:28:20;;;;;;;2.83;0.60;;;20.50;37.90;;;;;;4954731;29;20063;-79
2022/03/06 15:30:46;;;;;;;1.95;0.40;;;20.50;38.20;;;;;;4931869;29;20373;-79
2022/03/06 15:33:11;;;;;;;2.42;0.50;;;20.50;38.60;;;;;;4930654;29;20407;-79
2022/03/06 15:35:37;;;;;;;2.03;0.60;;;20.40;38.80;;;;;;4920319;29;20123;-79
2022/03/06 15:38:02;;;;;;;2.42;0.40;;;20.40;38.80;;;;;;4918685;29;20475;-80
2022/03/06 15:40:30;;;;;;;1.90;0.55;;;20.40;38.80;;;;;;4948467;29;20050;-79
2022/03/06 15:43:05;;;;;;;1.23;0.40;;;20.40;38.90;;;;;;4954454;29;20510;-81
2022/03/06 15:45:39;;;;;;;2.58;0.35;;;20.40;38.90;;;;;;4938284;29;20047;-80
2022/03/06 15:48:05;;;;;;;1.65;0.60;;;20.40;39.10;;;;;;4953314;29;20089;-80
2022/03/06 15:50:31;;;;;;;0.88;0.30;;;20.40;39.00;;;;;;4944469;23;20546;-82
2022/03/06 15:52:56;;;;;;;2.03;0.40;;;20.40;39.00;;;;;;4921768;29;20051;-81
2022/03/06 15:55:25;;;;;;;1.90;0.40;;;20.50;39.10;;;;;;4936707;29;20574;-81
2022/03/06 15:57:51;;;;;;;1.52;0.40;;;20.40;39.00;;;;;;4937005;29;20550;-81
2022/03/06 16:00:20;;;;;;;1.98;0.40;;;20.40;39.00;;;;;;4937278;29;20106;-81
2022/03/06 16:02:45;;;;;;;1.02;0.30;;;20.40;39.10;;;;;;4936135;29;20053;-79
2022/03/06 16:05:11;;;;;;;0.75;0.20;;;20.40;39.10;;;;;;4937144;29;20047;-81
2022/03/06 16:07:37;;;;;;;1.20;0.40;;;20.40;39.30;;;;;;4954773;29;20051;-79
2022/03/06 16:10:02;;;;;;;0.95;0.30;;;20.40;39.20;;;;;;4936933;29;20094;-80
2022/03/06 16:12:28;;;;;;;1.50;0.50;;;20.40;39.30;;;;;;4937253;29;20498;-80
2022/03/06 16:14:58;;;;;;;1.08;0.40;;;20.30;39.20;;;;;;4937380;29;20043;-81
2022/03/06 16:17:25;;;;;;;2.40;0.30;;;20.30;39.20;;;;;;4936014;29;20483;-80
2022/03/06 16:19:50;;;;;;;0.75;0.30;;;20.30;39.30;;;;;;4937256;29;20625;-80
2022/03/06 16:22:16;;;;;;;0.80;0.30;;;20.30;39.30;;;;;;4937036;29;20139;-80
2022/03/06 16:24:44;;;;;;;2.15;0.40;;;20.30;39.40;;;;;;4936134;29;20503;-80
2022/03/06 16:27:09;;;;;;;1.50;0.30;;;20.30;39.40;;;;;;4936534;29;20050;-81
2022/03/06 16:29:36;;;;;;;1.00;0.50;;;20.20;39.30;;;;;;4931754;29;20043;-81
2022/03/06 16:32:03;;;;;;;1.65;0.30;;;20.30;39.40;;;;;;4924608;29;20051;-79
2022/03/06 16:34:42;;;;;;;1.52;0.30;;;20.30;39.40;;;;;;4946998;29;20054;-79
2022/03/06 16:37:07;;;;;;;2.25;0.30;;;21.50;40.00;;;;;;4935587;29;20047;-81
2022/03/06 16:39:33;;;;;;;1.33;0.30;;;20.30;39.50;;;;;;4936982;29;20043;-81
2022/03/06 16:42:03;;;;;;;1.48;0.20;;;20.30;39.40;;;;;;4936862;29;20831;-80
2022/03/06 16:44:29;;;;;;;2.08;0.35;;;20.30;39.40;;;;;;4936386;29;20167;-86
2022/03/06 16:46:54;;;;;;;1.50;0.40;;;20.30;39.50;;;;;;4936586;29;20594;-81
2022/03/06 16:49:20;;;;;;;2.50;0.40;;;20.20;39.40;;;;;;4954204;29;20040;-81
2022/03/06 16:51:46;;;;;;;0.52;0.20;;;20.20;39.30;;;;;;4935436;29;20066;-78
2022/03/06 16:54:11;;;;;;;1.42;0.40;;;20.20;39.40;;;;;;4935940;29;20102;-79
2022/03/06 16:56:37;;;;;;;0.93;0.30;;;20.20;39.40;;;;;;4936396;29;20110;-80
2022/03/06 16:59:03;;;;;;;0.90;0.25;;;20.20;39.40;;;;;;4953282;29;20039;-80
2022/03/06 17:01:31;;;;;;;1.90;0.40;;;20.20;39.40;;;;;;4954133;29;20191;-80
2022/03/06 17:03:57;;;;;;;1.20;0.38;;;20.20;39.40;;;;;;4926633;29;20131;-80
2022/03/06 17:06:24;;;;;;;1.40;0.20;;;20.20;39.40;;;;;;4929469;29;20051;-80
2022/03/06 17:08:52;;;;;;;0.77;0.38;;;20.20;39.40;;;;;;4918636;29;20060;-80
2022/03/06 17:11:21;;;;;;;1.10;0.35;;;20.20;39.40;;;;;;4921484;29;20051;-80
2022/03/06 17:13:47;;;;;;;0.73;0.20;;;20.20;39.40;;;;;;4936008;29;20411;-80
2022/03/06 17:16:12;;;;;;;2.28;0.32;;;20.20;39.40;;;;;;4945843;29;20035;-80
2022/03/06 17:18:38;;;;;;;0.93;0.40;;;20.20;39.40;;;;;;4917198;29;20480;-80
2022/03/06 17:21:03;;;;;;;0.93;0.35;;;20.20;39.40;;;;;;4926675;23;20063;-79
2022/03/06 17:23:29;;;;;;;1.02;0.50;;;20.20;39.40;;;;;;4931387;28;20051;-80
2022/03/06 17:25:55;;;;;;;2.35;0.50;;;20.60;39.70;;;;;;4934328;29;20129;-77
2022/03/06 17:28:20;;;;;;;1.58;0.50;;;19.90;39.00;;;;;;4933981;28;20082;-77
2022/03/06 17:30:46;;;;;;;1.30;0.50;;;19.90;38.70;;;;;;4934699;29;20039;-77
2022/03/06 17:33:12;;;;;;;0.68;0.28;;;20.10;38.80;;;;;;4934659;29;20066;-78
2022/03/06 17:35:38;;;;;;;1.15;0.30;;;20.20;39.00;;;;;;4935024;29;20100;-77
2022/03/06 17:38:04;;;;;;;2.88;0.52;;;20.10;39.10;;;;;;4934354;29;20465;-76
2022/03/06 17:40:29;;;;;;;7.65;0.65;;;20.10;39.30;;;;;;4946283;29;20054;-81
2022/03/06 17:42:55;;;;;;;3.28;0.50;;;20.20;39.60;;;;;;4926927;29;20134;-80
2022/03/06 17:45:23;;;;;;;3.28;0.20;;;20.20;39.60;;;;;;4925171;29;20055;-80
2022/03/06 17:47:49;;;;;;;2.10;0.30;;;20.20;39.60;;;;;;4922396;29;20807;-81
2022/03/06 17:50:15;;;;;;;0.90;0.28;;;20.20;39.60;;;;;;4932834;29;20103;-77
2022/03/06 17:52:40;;;;;;;1.63;0.30;;;20.20;39.60;;;;;;4929192;29;20054;-78
2022/03/06 17:55:06;;;;;;;2.38;0.22;;;20.20;39.60;;;;;;4932597;29;20039;-78
2022/03/06 17:57:31;;;;;;;2.05;0.30;;;20.20;39.60;;;;;;4925838;29;20056;-78
2022/03/06 17:59:57;;;;;;;2.92;0.30;;;20.20;39.60;;;;;;4920533;29;20057;-78
2022/03/06 18:02:23;;;;;;;1.92;0.30;;;20.30;39.70;;;;;;4927768;29;20499;-80
2022/03/06 18:04:48;;;;;;;0.45;0.15;;;20.20;39.70;;;;;;4934630;29;20495;-80
2022/03/06 18:07:14;;;;;;;0.93;0.30;;;20.20;39.80;;;;;;4934351;29;20647;-81
2022/03/06 18:09:39;;;;;;;2.42;0.40;;;20.20;39.80;;;;;;4902028;23;1134209;-80